Time;durP1;ratioP1;P1;durP2;ratioP2;P2;SDS_P1;SDS_P2;PMS_P1;PMS_P2;Temp;Humidity;BMP_temperature;BMP_pressure;BME280_temperature;BME280_humidity;BME280_pressure;Samples;Min_cycle;Max_cycle;Signal;HPM_P1;HPM_P2
2024/04/11 00:01:39;;;;;;;3.63;2.55;;;;;;;8.84;56.90;96225.84;5443923;26;19991;-44
2024/04/11 00:04:05;;;;;;;4.70;2.28;;;;;;;9.01;56.62;96219.88;5450326;26;20003;-44
2024/04/11 00:06:30;;;;;;;4.68;2.30;;;;;;;9.42;55.42;96224.75;5441817;26;20041;-44
2024/04/11 00:08:56;;;;;;;3.90;2.22;;;;;;;8.47;58.23;96227.41;5409965;26;20018;-45
2024/04/11 00:11:21;;;;;;;3.67;2.45;;;;;;;8.93;56.95;96224.94;5435961;26;20011;-43
2024/04/11 00:13:46;;;;;;;5.43;2.33;;;;;;;8.74;57.71;96228.47;5436331;26;20105;-44
2024/04/11 00:16:12;;;;;;;5.47;2.35;;;;;;;8.92;57.25;96229.34;5447142;26;20014;-46
2024/04/11 00:18:39;;;;;;;5.65;2.40;;;;;;;8.91;56.83;96222.53;5432815;26;19999;-43
2024/04/11 00:21:05;;;;;;;5.25;2.22;;;;;;;9.26;55.64;96222.78;5468652;26;20003;-43
2024/04/11 00:23:30;;;;;;;7.40;2.22;;;;;;;9.07;56.31;96223.69;5455686;26;19998;-43
2024/04/11 00:25:57;;;;;;;3.05;2.20;;;;;;;9.07;55.87;96228.88;5444177;26;20014;-43
2024/04/11 00:28:24;;;;;;;6.60;2.40;;;;;;;9.32;55.59;96230.81;5442605;26;20014;-48
2024/04/11 00:30:50;;;;;;;2.80;2.13;;;;;;;9.44;55.33;96226.22;5449210;26;20014;-45
2024/04/11 00:33:15;;;;;;;3.95;2.13;;;;;;;8.85;57.14;96225.66;5400705;26;20081;-44
2024/04/11 00:35:41;;;;;;;4.78;2.28;;;;;;;9.16;56.05;96228.03;5439121;26;19994;-44
2024/04/11 00:38:10;;;;;;;4.88;2.00;;;;;;;9.36;55.27;96221.75;5420380;26;20013;-43
2024/04/11 00:40:36;;;;;;;3.22;1.67;;;;;;;9.46;54.74;96224.31;5444795;26;20015;-44
2024/04/11 00:43:01;;;;;;;5.13;2.20;;;;;;;9.57;54.68;96223.28;5438473;26;20003;-43
2024/04/11 00:45:27;;;;;;;3.05;1.90;;;;;;;9.44;55.07;96220.22;5448670;26;19994;-43
2024/04/11 00:47:52;;;;;;;4.88;2.20;;;;;;;9.24;55.82;96209.13;5439327;26;19999;-46
2024/04/11 00:50:19;;;;;;;4.07;1.88;;;;;;;9.41;54.91;96210.94;5450339;26;20006;-48
2024/04/11 00:52:46;;;;;;;3.45;1.90;;;;;;;9.31;55.09;96211.00;5431173;26;19996;-44
2024/04/11 00:55:12;;;;;;;4.53;2.15;;;;;;;9.53;54.60;96220.16;5444822;26;20408;-44
2024/04/11 00:57:37;;;;;;;4.10;2.25;;;;;;;9.32;54.91;96210.03;5437466;26;20321;-46
2024/04/11 01:00:04;;;;;;;5.97;2.20;;;;;;;9.33;54.56;96214.28;5442357;26;19996;-48
2024/04/11 01:02:30;;;;;;;6.25;2.40;;;;;;;9.11;55.58;96212.06;5439182;26;19999;-44
2024/04/11 01:04:57;;;;;;;6.45;2.60;;;;;;;9.07;56.38;96208.13;5447313;26;20006;-45
2024/04/11 01:07:22;;;;;;;6.40;2.47;;;;;;;9.09;56.57;96201.00;5447408;26;20003;-44
2024/04/11 01:09:48;;;;;;;4.55;2.28;;;;;;;8.89;56.76;96197.66;5439355;26;19998;-46
2024/04/11 01:12:17;;;;;;;5.07;2.60;;;;;;;8.83;57.26;96196.47;5449909;26;20048;-48
2024/04/11 01:14:48;;;;;;;5.82;2.50;;;;;;;8.70;57.32;96201.16;5449759;26;20017;-49
2024/04/11 01:17:16;;;;;;;3.00;2.25;;;;;;;8.58;57.92;96193.53;5448342;26;19999;-48
2024/04/11 01:19:47;;;;;;;3.88;2.58;;;;;;;8.70;57.24;96191.63;5447661;26;20015;-45
2024/04/11 01:22:13;;;;;;;3.67;2.30;;;;;;;8.79;57.17;96179.56;5447714;26;20003;-50
2024/04/11 01:24:41;;;;;;;5.57;2.58;;;;;;;8.96;56.79;96183.97;5432210;26;20003;-46
2024/04/11 01:27:12;;;;;;;5.93;2.50;;;;;;;9.00;56.41;96180.16;5442700;26;19999;-47
2024/04/11 01:29:38;;;;;;;3.83;2.20;;;;;;;8.87;56.92;96187.47;5423254;26;20038;-45
2024/04/11 01:32:05;;;;;;;4.50;2.17;;;;;;;8.65;57.51;96177.44;5447615;26;20027;-45
2024/04/11 01:34:30;;;;;;;4.50;2.40;;;;;;;8.55;58.22;96180.88;5449453;26;19999;-48
2024/04/11 01:36:57;;;;;;;4.57;2.40;;;;;;;8.18;59.30;96176.41;5442151;26;20465;-46
2024/04/11 01:39:24;;;;;;;4.38;2.60;;;;;;;8.02;59.76;96176.16;5448176;26;20014;-47
2024/04/11 01:41:50;;;;;;;4.00;2.60;;;;;;;7.74;60.94;96167.44;5442394;26;20050;-47
2024/04/11 01:44:15;;;;;;;4.30;2.40;;;;;;;8.01;60.20;96170.19;5447706;26;20003;-48
2024/04/11 01:46:40;;;;;;;6.40;2.50;;;;;;;7.57;61.13;96166.34;5443664;26;19995;-49
2024/04/11 01:49:06;;;;;;;6.35;2.40;;;;;;;7.83;60.90;96156.28;5448323;26;20401;-47
2024/04/11 01:51:31;;;;;;;3.50;2.20;;;;;;;7.63;61.13;96150.25;5447301;26;20097;-47
2024/04/11 01:53:56;;;;;;;5.68;2.38;;;;;;;7.54;61.90;96143.31;5445074;26;20046;-46
2024/04/11 01:56:25;;;;;;;3.33;2.38;;;;;;;7.69;60.81;96147.16;5439397;26;20015;-48
2024/04/11 01:58:50;;;;;;;3.45;2.30;;;;;;;7.88;60.91;96148.91;5442021;26;20467;-51
2024/04/11 02:01:19;;;;;;;4.03;2.30;;;;;;;7.86;60.84;96132.66;5434762;26;20010;-46
2024/04/11 02:03:44;;;;;;;3.75;2.05;;;;;;;7.57;61.76;96130.91;5444298;26;20014;-50
2024/04/11 02:06:11;;;;;;;4.57;2.25;;;;;;;7.87;60.82;96138.69;5414971;26;19999;-44
2024/04/11 02:08:37;;;;;;;4.10;2.30;;;;;;;7.90;60.28;96126.28;5429420;26;20010;-46
2024/04/11 02:11:04;;;;;;;4.18;2.40;;;;;;;7.95;60.52;96123.25;5435430;26;20010;-46
2024/04/11 02:13:29;;;;;;;6.13;2.53;;;;;;;7.89;61.08;96124.63;5445682;26;20003;-44
2024/04/11 02:15:55;;;;;;;3.33;2.00;;;;;;;8.12;60.28;96117.38;5445641;26;20071;-44
2024/04/11 02:18:20;;;;;;;3.17;2.20;;;;;;;8.02;60.26;96107.03;5441463;26;20047;-45
2024/04/11 02:20:47;;;;;;;3.00;2.40;;;;;;;7.99;60.40;96102.09;5386291;26;20000;-43
2024/04/11 02:23:13;;;;;;;4.90;2.40;;;;;;;8.23;59.64;96112.03;5446611;26;20011;-44
2024/04/11 02:25:39;;;;;;;4.53;2.40;;;;;;;8.46;58.77;96113.50;5441245;26;20006;-45
2024/04/11 02:28:05;;;;;;;5.35;2.53;;;;;;;8.40;58.87;96107.88;5429989;26;20017;-44
2024/04/11 02:30:31;;;;;;;7.15;2.88;;;;;;;8.58;58.08;96115.75;5448468;26;20101;-49
2024/04/11 02:32:56;;;;;;;3.03;2.38;;;;;;;8.52;58.25;96115.50;5444317;26;19998;-46
2024/04/11 02:35:22;;;;;;;5.63;2.80;;;;;;;8.29;58.69;96115.81;5441179;26;20423;-47
2024/04/11 02:37:51;;;;;;;3.75;2.60;;;;;;;8.53;57.92;96123.16;5433326;26;20401;-49
2024/04/11 02:40:17;;;;;;;3.45;2.67;;;;;;;8.61;57.80;96115.47;5448686;26;19999;-47
2024/04/11 02:42:43;;;;;;;4.38;2.63;;;;;;;8.17;58.88;96122.16;5396309;26;20035;-45
2024/04/11 02:45:08;;;;;;;3.72;2.67;;;;;;;8.14;59.26;96123.22;5446884;26;19999;-45
2024/04/11 02:47:38;;;;;;;5.25;3.10;;;;;;;8.52;57.86;96124.09;5438016;26;19999;-46
2024/04/11 02:50:06;;;;;;;6.47;2.60;;;;;;;8.25;58.77;96127.44;5444546;26;20074;-44
2024/04/11 02:52:32;;;;;;;5.80;2.70;;;;;;;8.22;58.41;96125.09;5446517;26;20002;-47
2024/04/11 02:54:58;;;;;;;3.22;2.55;;;;;;;8.29;58.47;96126.19;5447250;26;20018;-48
2024/04/11 02:57:23;;;;;;;5.72;2.90;;;;;;;7.95;59.90;96124.06;5445793;26;20003;-48
2024/04/11 02:59:53;;;;;;;5.05;2.60;;;;;;;8.17;58.71;96128.13;5446163;26;20002;-45
2024/04/11 03:02:23;;;;;;;4.27;2.70;;;;;;;8.02;59.35;96129.53;5439444;26;20402;-49
2024/04/11 03:04:50;;;;;;;6.72;3.05;;;;;;;8.27;58.15;96133.28;5417948;26;20279;-50
2024/04/11 03:07:16;;;;;;;3.10;2.58;;;;;;;8.45;57.83;96130.81;5447023;26;19999;-46
2024/04/11 03:09:41;;;;;;;5.53;3.00;;;;;;;8.61;57.39;96131.03;5444340;26;20026;-51
2024/04/11 03:12:07;;;;;;;4.32;2.70;;;;;;;8.57;57.59;96139.25;5441357;26;20010;-46
2024/04/11 03:14:32;;;;;;;4.50;2.60;;;;;;;8.50;57.51;96138.16;5424484;26;19999;-47
2024/04/11 03:16:59;;;;;;;4.10;2.33;;;;;;;8.37;58.39;96141.03;5432454;26;20007;-47
2024/04/11 03:19:25;;;;;;;4.65;2.70;;;;;;;8.38;58.10;96143.50;5447514;26;20039;-47
2024/04/11 03:21:50;;;;;;;5.60;2.63;;;;;;;8.23;58.42;96155.25;5434590;26;20011;-48
2024/04/11 03:24:16;;;;;;;4.22;2.63;;;;;;;8.30;58.46;96147.72;5446277;26;20009;-50
2024/04/11 03:26:41;;;;;;;4.03;2.40;;;;;;;8.56;57.26;96148.78;5444073;26;20079;-49
2024/04/11 03:29:08;;;;;;;4.95;2.50;;;;;;;8.50;57.59;96145.94;5417741;26;20012;-48
2024/04/11 03:31:33;;;;;;;4.93;2.85;;;;;;;8.63;57.31;96151.63;5440812;26;20003;-49
2024/04/11 03:34:04;;;;;;;4.38;2.50;;;;;;;8.74;56.70;96153.25;5442180;26;20014;-46
2024/04/11 03:36:32;;;;;;;4.45;2.78;;;;;;;8.78;56.94;96159.78;5447633;26;20003;-45
2024/04/11 03:38:57;;;;;;;3.67;2.65;;;;;;;8.78;56.61;96154.59;5443450;26;20355;-48
2024/04/11 03:41:23;;;;;;;3.88;2.70;;;;;;;8.74;56.84;96155.84;5439529;26;20004;-50
2024/04/11 03:43:54;;;;;;;3.72;2.40;;;;;;;8.71;56.87;96153.50;5442719;26;19999;-44
2024/04/11 03:46:21;;;;;;;4.45;2.50;;;;;;;8.92;56.32;96163.66;5443978;26;19999;-46
2024/04/11 03:48:56;;;;;;;4.50;2.63;;;;;;;8.97;55.77;96167.47;5447507;26;20006;-45
2024/04/11 03:51:30;;;;;;;3.28;2.60;;;;;;;8.83;56.51;96170.50;5451467;26;20324;-48
2024/04/11 03:53:56;;;;;;;5.25;2.55;;;;;;;8.90;56.22;96173.38;5431586;26;20032;-44
2024/04/11 03:56:25;;;;;;;3.30;2.65;;;;;;;8.77;56.54;96171.09;5444437;26;20002;-47
2024/04/11 03:58:51;;;;;;;6.35;2.55;;;;;;;8.82;56.10;96178.47;5432711;26;20003;-49
2024/04/11 04:01:18;;;;;;;4.40;2.50;;;;;;;8.56;56.81;96182.50;5446826;26;20014;-47
2024/04/11 04:03:46;;;;;;;3.97;2.47;;;;;;;7.59;59.67;96185.16;5435296;26;20002;-47
2024/04/11 04:06:13;;;;;;;4.30;2.33;;;;;;;8.05;57.90;96169.88;5435513;26;20003;-48
2024/04/11 04:08:40;;;;;;;3.40;2.60;;;;;;;7.63;59.38;96166.63;5445355;26;20011;-46
2024/04/11 04:11:06;;;;;;;5.78;2.70;;;;;;;7.69;59.17;96170.47;5439169;26;20004;-47
2024/04/11 04:13:37;;;;;;;4.18;2.67;;;;;;;7.75;58.58;96169.91;5435709;26;20076;-45
2024/04/11 04:16:08;;;;;;;3.92;2.60;;;;;;;7.95;58.30;96180.25;5446517;26;20014;-49
2024/04/11 04:18:36;;;;;;;4.90;2.70;;;;;;;7.83;58.33;96188.16;5446208;26;20013;-48
2024/04/11 04:21:02;;;;;;;4.20;2.78;;;;;;;7.88;58.31;96179.16;5444066;26;20022;-51
2024/04/11 04:23:28;;;;;;;4.63;2.65;;;;;;;8.01;57.79;96184.88;5444667;26;19998;-50
2024/04/11 04:25:54;;;;;;;4.40;2.50;;;;;;;7.91;58.21;96186.66;5428910;26;20018;-50
2024/04/11 04:28:20;;;;;;;4.50;2.65;;;;;;;8.00;58.21;96184.06;5409367;26;20010;-49
2024/04/11 04:30:45;;;;;;;3.78;2.60;;;;;;;8.10;57.75;96194.41;5465396;26;20042;-45
2024/04/11 04:33:11;;;;;;;4.20;2.70;;;;;;;8.10;57.84;96199.59;5449631;26;20015;-45
2024/04/11 04:35:36;;;;;;;3.90;2.35;;;;;;;8.25;57.33;96201.78;5437352;26;20018;-47
2024/04/11 04:38:02;;;;;;;5.13;2.53;;;;;;;8.19;57.08;96205.75;5443366;26;20010;-45
2024/04/11 04:40:27;;;;;;;5.15;2.50;;;;;;;8.07;57.45;96202.47;5451129;26;20021;-48
2024/04/11 04:42:53;;;;;;;5.45;2.40;;;;;;;8.27;57.01;96212.81;5442641;26;20003;-46
2024/04/11 04:45:19;;;;;;;5.13;2.40;;;;;;;8.33;56.90;96212.25;5441354;26;20013;-50
2024/04/11 04:47:45;;;;;;;5.20;2.58;;;;;;;8.24;57.12;96213.91;5450538;26;20007;-46
2024/04/11 04:50:12;;;;;;;5.50;2.35;;;;;;;8.02;57.56;96227.97;5441033;26;20002;-47
2024/04/11 04:52:38;;;;;;;4.18;2.47;;;;;;;8.31;56.78;96237.50;5442070;26;19999;-46
2024/04/11 04:55:04;;;;;;;3.75;2.60;;;;;;;8.39;56.64;96241.03;5444050;26;20014;-48
2024/04/11 04:57:31;;;;;;;4.78;2.30;;;;;;;8.25;56.93;96240.66;5440055;26;20015;-50
2024/04/11 04:59:57;;;;;;;5.47;2.60;;;;;;;8.31;56.93;96245.28;5438473;26;20003;-49
2024/04/11 05:02:24;;;;;;;7.93;2.60;;;;;;;8.54;56.20;96254.41;5430114;26;20106;-47
2024/04/11 05:04:49;;;;;;;5.50;2.70;;;;;;;8.55;56.32;96261.25;5444149;26;20003;-44
2024/04/11 05:07:15;;;;;;;5.70;3.10;;;;;;;8.38;56.80;96261.94;5411351;26;20003;-43
2024/04/11 05:09:40;;;;;;;7.13;3.50;;;;;;;8.50;56.48;96258.25;5454173;26;20006;-45
2024/04/11 05:12:06;;;;;;;9.38;3.38;;;;;;;8.46;56.58;96263.88;5450769;26;20068;-46
2024/04/11 05:14:32;;;;;;;5.97;3.10;;;;;;;8.23;57.45;96271.91;5445949;26;20432;-47
2024/04/11 05:17:00;;;;;;;4.18;2.40;;;;;;;8.40;56.68;96284.16;5448301;26;19999;-45
2024/04/11 05:19:25;;;;;;;3.83;2.35;;;;;;;8.68;56.03;96286.91;5450047;26;19999;-48
2024/04/11 05:21:51;;;;;;;3.70;2.25;;;;;;;8.75;55.80;96287.94;5449677;26;20432;-46
2024/04/11 05:24:17;;;;;;;4.38;2.20;;;;;;;8.71;56.04;96289.19;5444515;26;20007;-46
2024/04/11 05:26:48;;;;;;;3.47;2.15;;;;;;;8.96;55.83;96297.34;5448057;26;20003;-45
2024/04/11 05:29:15;;;;;;;4.93;2.33;;;;;;;8.93;55.72;96289.81;5439737;26;20006;-44
2024/04/11 05:31:41;;;;;;;6.32;2.22;;;;;;;9.09;55.22;96297.03;5440495;26;20015;-44
2024/04/11 05:34:06;;;;;;;4.43;2.10;;;;;;;9.13;55.41;96293.19;5442754;26;20002;-47
2024/04/11 05:36:32;;;;;;;5.20;2.58;;;;;;;9.36;54.73;96307.44;5443574;26;20011;-44
2024/04/11 05:38:58;;;;;;;3.92;2.22;;;;;;;9.50;54.74;96303.56;5426789;26;20004;-45
2024/04/11 05:41:26;;;;;;;3.72;2.10;;;;;;;9.41;55.52;96314.00;5446634;26;19998;-44
2024/04/11 05:43:52;;;;;;;3.88;2.20;;;;;;;10.01;53.70;96310.94;5434613;26;20010;-46
2024/04/11 05:46:18;;;;;;;4.78;2.80;;;;;;;10.29;52.19;96311.69;5436134;26;20000;-47
2024/04/11 05:48:47;;;;;;;4.45;2.30;;;;;;;11.27;49.82;96319.44;5442498;26;20003;-46
2024/04/11 05:51:13;;;;;;;3.92;2.55;;;;;;;11.52;49.00;96320.38;5449075;26;20030;-45
2024/04/11 05:53:38;;;;;;;3.72;2.20;;;;;;;12.22;48.69;96322.75;5441790;26;20019;-47
2024/04/11 05:56:04;;;;;;;4.13;2.38;;;;;;;12.48;47.28;96330.44;5447496;26;20072;-44
2024/04/11 05:58:30;;;;;;;3.22;2.25;;;;;;;13.28;45.65;96326.31;5447561;26;20010;-45
2024/04/11 06:01:00;;;;;;;4.20;2.30;;;;;;;13.75;44.32;96333.38;5447130;26;20003;-44
2024/04/11 06:03:29;;;;;;;4.15;2.17;;;;;;;13.64;44.18;96331.13;5440446;26;20311;-44
2024/04/11 06:05:55;;;;;;;4.10;2.05;;;;;;;13.66;43.82;96339.63;5447844;26;19998;-44
2024/04/11 06:08:22;;;;;;;7.93;2.33;;;;;;;14.13;43.70;96336.13;5444946;26;20038;-44
2024/04/11 06:10:48;;;;;;;2.92;2.10;;;;;;;13.79;43.34;96333.84;5444686;26;19996;-44
2024/04/11 06:13:13;;;;;;;5.00;2.28;;;;;;;14.33;43.70;96335.69;5445419;26;20010;-51
2024/04/11 06:15:41;;;;;;;4.47;2.13;;;;;;;14.87;42.16;96338.28;5441690;26;19999;-47
2024/04/11 06:18:09;;;;;;;3.00;1.85;;;;;;;15.26;41.32;96337.25;5444498;26;20342;-44
2024/04/11 06:20:38;;;;;;;3.72;1.90;;;;;;;14.93;41.64;96348.06;5449800;26;20069;-46
2024/04/11 06:23:15;;;;;;;4.05;1.77;;;;;;;16.20;39.10;96339.28;5447075;26;20030;-46
2024/04/11 06:25:42;;;;;;;5.82;2.10;;;;;;;16.46;39.02;96348.47;5441766;26;20015;-47
2024/04/11 06:28:11;;;;;;;4.25;1.88;;;;;;;16.67;39.16;96353.72;5446567;26;20003;-46
2024/04/11 06:30:38;;;;;;;3.13;1.80;;;;;;;17.12;37.71;96348.28;5447451;26;20010;-47
2024/04/11 06:33:08;;;;;;;2.15;1.60;;;;;;;17.24;37.67;96346.75;5436569;26;20015;-45
2024/04/11 06:35:36;;;;;;;6.75;2.00;;;;;;;16.61;37.50;96359.72;5442106;26;20004;-46
2024/04/11 06:38:05;;;;;;;4.35;2.08;;;;;;;16.52;38.90;96355.59;5431023;26;20003;-47
2024/04/11 06:40:33;;;;;;;3.00;1.90;;;;;;;16.46;39.01;96353.72;5439776;26;20045;-47
2024/04/11 06:42:59;;;;;;;3.38;1.80;;;;;;;17.31;36.99;96357.31;5438827;26;20443;-47
2024/04/11 06:45:25;;;;;;;4.15;2.03;;;;;;;17.64;37.61;96361.97;5417196;26;20076;-47
2024/04/11 06:47:52;;;;;;;3.83;1.90;;;;;;;17.92;36.06;96354.06;5447849;26;20015;-49
2024/04/11 06:50:20;;;;;;;3.10;1.70;;;;;;;17.75;35.78;96349.09;5433944;26;20014;-49
2024/04/11 06:52:45;;;;;;;3.50;2.28;;;;;;;17.39;36.84;96336.13;5445395;26;20011;-50
2024/04/11 06:55:14;;;;;;;3.90;2.50;;;;;;;16.77;39.53;96351.59;5448790;26;20006;-51
2024/04/11 06:57:44;;;;;;;4.05;2.75;;;;;;;17.13;38.00;96350.69;5442976;26;20023;-46
2024/04/11 07:00:58;;;;;;;4.15;2.83;;;;;;;17.32;39.14;96359.72;5436240;26;20018;-48
2024/04/11 07:02:56;;;;;;;4.63;2.40;;;;;;;18.16;37.55;96350.09;5432370;26;20357;-47
2024/04/11 07:05:21;;;;;;;3.00;2.20;;;;;;;18.31;36.89;96350.75;5439775;26;20007;-45
2024/04/11 07:07:54;;;;;;;3.13;2.42;;;;;;;18.68;35.53;96356.50;5428042;26;20518;-46
2024/04/11 07:10:25;;;;;;;2.50;2.10;;;;;;;19.24;35.17;96355.34;5444945;26;20052;-45
2024/04/11 07:12:52;;;;;;;4.57;2.22;;;;;;;19.49;34.99;96346.78;5442127;26;20044;-48
2024/04/11 07:15:18;;;;;;;2.42;2.13;;;;;;;19.63;34.59;96351.03;5427990;26;20003;-46
2024/04/11 07:17:56;;;;;;;4.72;2.22;;;;;;;20.06;32.38;96360.28;5431946;26;20010;-49
2024/04/11 07:20:31;;;;;;;5.72;2.80;;;;;;;20.11;32.92;96355.97;5443898;26;19995;-45
2024/04/11 07:23:04;;;;;;;5.72;2.13;;;;;;;20.85;32.27;96358.25;5442437;26;20011;-46
2024/04/11 07:25:32;;;;;;;3.40;2.22;;;;;;;20.24;33.88;96357.75;5426083;26;20000;-44
2024/04/11 07:28:00;;;;;;;4.80;2.42;;;;;;;21.09;32.16;96354.00;5433561;26;20003;-48
2024/04/11 07:30:26;;;;;;;3.95;2.50;;;;;;;21.54;30.89;96355.69;5429491;26;20327;-49
2024/04/11 07:32:52;;;;;;;2.90;2.47;;;;;;;21.50;30.08;96360.59;5425555;26;20003;-46
2024/04/11 07:35:17;;;;;;;5.32;2.50;;;;;;;20.63;32.39;96363.88;5436789;26;20092;-46
2024/04/11 07:37:43;;;;;;;3.17;2.30;;;;;;;20.62;32.64;96367.56;5402603;26;20024;-54
2024/04/11 07:40:27;;;;;;;4.63;2.90;;;;;;;20.42;32.78;96369.47;5424319;26;20000;-47
2024/04/11 07:43:06;;;;;;;3.22;2.05;;;;;;;20.75;32.15;96365.84;5436743;26;19999;-48
2024/04/11 07:45:41;;;;;;;3.60;2.00;;;;;;;20.47;32.46;96367.00;5445633;26;20010;-44
2024/04/11 07:48:10;;;;;;;3.65;2.10;;;;;;;20.19;33.97;96362.84;5427827;26;20014;-45
2024/04/11 07:50:39;;;;;;;3.63;2.08;;;;;;;20.86;33.11;96368.59;5436128;26;20014;-45
2024/04/11 07:53:14;;;;;;;3.33;2.17;;;;;;;21.36;33.20;96372.28;5438488;26;20003;-48
2024/04/11 07:55:54;;;;;;;4.47;2.17;;;;;;;21.62;32.08;96371.28;5424458;26;20010;-45
2024/04/11 07:58:20;;;;;;;4.35;2.50;;;;;;;20.59;33.12;96367.94;5428302;26;20003;-46
2024/04/11 08:00:50;;;;;;;4.53;2.28;;;;;;;21.49;32.40;96361.63;5442050;26;20008;-47
2024/04/11 08:03:17;;;;;;;3.75;2.28;;;;;;;21.55;32.29;96373.16;5440685;26;20003;-44
2024/04/11 08:05:43;;;;;;;4.13;2.10;;;;;;;22.73;30.09;96379.16;5419324;26;19999;-48
2024/04/11 08:08:08;;;;;;;3.55;2.00;;;;;;;22.49;31.46;96378.28;5449505;26;19999;-46
2024/04/11 08:10:35;;;;;;;2.80;1.85;;;;;;;21.93;30.64;96380.91;5427249;26;20013;-44
2024/04/11 08:13:01;;;;;;;2.22;1.80;;;;;;;21.81;32.14;96391.44;5420177;26;20014;-46
2024/04/11 08:15:26;;;;;;;3.70;1.70;;;;;;;21.51;32.37;96393.16;5432276;26;19999;-46
2024/04/11 08:17:51;;;;;;;3.45;1.67;;;;;;;21.12;33.16;96395.91;5445920;26;20010;-49
2024/04/11 08:20:19;;;;;;;3.45;1.70;;;;;;;21.67;31.21;96395.25;5443387;26;20046;-46
2024/04/11 08:22:46;;;;;;;1.73;1.42;;;;;;;21.26;32.38;96407.19;5442567;26;20015;-48
2024/04/11 08:25:12;;;;;;;2.42;1.38;;;;;;;20.57;32.55;96403.53;5446591;26;20075;-47
2024/04/11 08:27:44;;;;;;;3.30;1.60;;;;;;;20.64;32.42;96410.44;5443921;26;20011;-46
2024/04/11 08:30:15;;;;;;;2.47;1.40;;;;;;;20.74;32.31;96409.97;5449716;26;20014;-47
2024/04/11 08:32:45;;;;;;;2.05;1.60;;;;;;;20.35;32.72;96411.75;5450977;26;20075;-46
2024/04/11 08:35:20;;;;;;;3.38;1.70;;;;;;;20.30;34.16;96415.03;5444457;26;20003;-46
2024/04/11 08:37:54;;;;;;;2.20;1.77;;;;;;;20.52;33.78;96406.81;5448582;26;20342;-46
2024/04/11 08:40:20;;;;;;;2.83;1.60;;;;;;;20.58;34.14;96410.44;5448368;26;20454;-48
2024/04/11 08:42:49;;;;;;;2.30;1.80;;;;;;;20.70;34.90;96414.06;5450139;26;19999;-45
2024/04/11 08:45:16;;;;;;;3.78;1.88;;;;;;;20.58;37.27;96416.56;5450572;26;20436;-45
2024/04/11 08:47:42;;;;;;;3.80;2.13;;;;;;;20.74;32.13;96414.47;5449875;26;20002;-46
2024/04/11 08:50:07;;;;;;;2.15;1.88;;;;;;;21.23;33.01;96421.66;5417262;26;20017;-47
2024/04/11 08:52:36;;;;;;;3.28;1.70;;;;;;;21.18;33.26;96421.50;5443405;26;20498;-46
2024/04/11 08:55:02;;;;;;;4.45;1.83;;;;;;;20.58;33.56;96416.56;5431217;26;20007;-48
2024/04/11 08:57:29;;;;;;;2.58;2.00;;;;;;;20.62;34.82;96422.22;5448192;26;20145;-46
2024/04/11 08:59:55;;;;;;;4.22;1.75;;;;;;;20.96;32.49;96421.06;5412726;26;20028;-45
2024/04/11 09:02:21;;;;;;;2.63;1.90;;;;;;;20.60;33.51;96413.72;5450832;26;20099;-45
2024/04/11 09:04:46;;;;;;;4.28;2.08;;;;;;;20.35;36.83;96417.03;5437932;26;19999;-45
2024/04/11 09:07:21;;;;;;;3.33;2.10;;;;;;;20.48;35.57;96416.19;5441254;26;20074;-45
2024/04/11 09:09:50;;;;;;;2.72;2.08;;;;;;;20.61;33.90;96420.63;5448427;26;20000;-49
2024/04/11 09:12:22;;;;;;;4.10;1.70;;;;;;;20.16;35.50;96423.22;5447312;26;20029;-51
2024/04/11 09:14:48;;;;;;;2.50;1.80;;;;;;;19.94;34.30;96410.28;5447041;26;20002;-48
2024/04/11 09:17:14;;;;;;;3.30;2.10;;;;;;;20.19;36.40;96423.63;5427658;26;20480;-52
2024/04/11 09:19:40;;;;;;;2.58;2.00;;;;;;;20.32;36.79;96422.75;5436022;26;20032;-50
2024/04/11 09:22:12;;;;;;;2.83;2.00;;;;;;;20.37;35.73;96419.47;5447723;26;20619;-51
2024/04/11 09:24:38;;;;;;;3.97;2.33;;;;;;;20.47;35.43;96420.66;5445382;26;19998;-48
2024/04/11 09:27:05;;;;;;;2.40;2.20;;;;;;;20.47;34.78;96417.22;5449341;26;19999;-48
2024/04/11 09:29:32;;;;;;;3.38;2.15;;;;;;;20.15;36.33;96419.78;5433965;26;20069;-51
2024/04/11 09:31:58;;;;;;;5.38;2.53;;;;;;;20.31;37.05;96421.97;5444918;26;19999;-48
2024/04/11 09:34:29;;;;;;;2.50;2.20;;;;;;;19.74;36.10;96434.06;5412737;26;19996;-50
2024/04/11 09:36:59;;;;;;;3.75;2.40;;;;;;;19.76;38.82;96437.31;5436526;26;20010;-50
2024/04/11 09:39:46;;;;;;;3.85;2.33;;;;;;;19.77;36.78;96435.50;5449970;26;19999;-47
2024/04/11 09:42:18;;;;;;;2.85;2.20;;;;;;;19.29;35.83;96439.16;5437539;26;19999;-46
2024/04/11 09:44:46;;;;;;;3.22;2.50;;;;;;;19.39;37.25;96422.91;5431732;26;20007;-45
2024/04/11 09:47:14;;;;;;;3.95;2.20;;;;;;;19.58;37.73;96422.09;5447983;26;20022;-45
2024/04/11 09:49:43;;;;;;;5.13;2.22;;;;;;;19.88;37.96;96438.31;5448215;26;20003;-45
2024/04/11 09:52:10;;;;;;;2.92;2.40;;;;;;;19.50;36.71;96428.38;5446371;26;20006;-48
2024/04/11 09:54:38;;;;;;;4.60;2.60;;;;;;;19.40;36.58;96425.38;5432758;26;20044;-49
2024/04/11 09:57:05;;;;;;;4.82;2.47;;;;;;;19.39;36.78;96431.63;5435139;26;19999;-47
2024/04/11 09:59:32;;;;;;;5.22;2.70;;;;;;;18.75;39.38;96425.88;5438862;26;19999;-47
2024/04/11 10:02:01;;;;;;;2.63;2.42;;;;;;;19.07;37.54;96426.13;5434503;26;20050;-49
2024/04/11 10:04:35;;;;;;;3.80;2.40;;;;;;;19.16;37.82;96423.31;5440097;26;19999;-47
2024/04/11 10:07:08;;;;;;;4.75;2.60;;;;;;;18.94;37.69;96420.84;5424228;26;20000;-50
2024/04/11 10:09:34;;;;;;;5.50;2.78;;;;;;;18.98;39.24;96419.44;5447599;26;20003;-50
2024/04/11 10:12:11;;;;;;;4.05;2.45;;;;;;;18.98;39.42;96410.72;5438262;26;20007;-46
2024/04/11 10:14:39;;;;;;;6.15;3.20;;;;;;;19.07;38.26;96426.13;5439914;26;20011;-47
2024/04/11 10:17:07;;;;;;;4.65;2.70;;;;;;;18.85;39.47;96428.16;5445893;26;20008;-48
2024/04/11 10:19:38;;;;;;;4.20;2.83;;;;;;;19.16;40.62;96426.75;5447583;26;19998;-47
2024/04/11 10:22:04;;;;;;;4.95;3.38;;;;;;;19.54;38.82;96423.53;5435657;26;20006;-50
2024/04/11 10:24:35;;;;;;;4.78;3.28;;;;;;;19.12;39.10;96426.34;5430593;26;20003;-48
2024/04/11 10:27:09;;;;;;;;;;;;;;;19.09;39.88;96424.09;5446911;26;20018;-49
2024/04/11 10:29:36;;;;;;;4.57;2.97;;;;;;;19.17;38.80;96422.28;5444487;26;19936;-47
2024/04/11 10:32:06;;;;;;;4.05;3.13;;;;;;;19.12;39.06;96413.16;5443868;26;20013;-50
2024/04/11 10:34:37;;;;;;;4.78;3.15;;;;;;;19.00;37.65;96414.78;5449163;26;20002;-48
2024/04/11 10:37:07;;;;;;;4.78;3.15;;;;;;;18.48;39.22;96409.16;5447277;26;20023;-47
2024/04/11 10:39:35;;;;;;;;;;;;;;;18.69;39.42;96412.66;5449335;26;20014;-48
2024/04/11 10:42:02;;;;;;;4.00;3.15;;;;;;;18.87;40.11;96415.56;5444087;26;19929;-49
2024/04/11 10:44:28;;;;;;;6.20;3.42;;;;;;;18.49;39.60;96404.72;5441885;26;19991;-47
2024/04/11 10:46:55;;;;;;;6.05;3.30;;;;;;;18.43;40.55;96414.22;5408843;26;19999;-47
2024/04/11 10:49:28;;;;;;;5.72;3.47;;;;;;;18.67;40.59;96410.22;5447106;26;19994;-48
2024/04/11 10:51:58;;;;;;;5.30;3.58;;;;;;;18.60;40.15;96409.41;5446613;26;20037;-49
2024/04/11 10:54:26;;;;;;;4.70;3.53;;;;;;;18.91;39.40;96421.25;5446147;26;20003;-47
2024/04/11 10:56:54;;;;;;;6.20;3.30;;;;;;;18.38;38.11;96410.56;5440480;26;19999;-52
2024/04/11 10:59:22;;;;;;;5.88;3.60;;;;;;;18.04;41.12;96414.84;5437420;26;20079;-46
2024/04/11 11:02:07;;;;;;;4.43;3.25;;;;;;;17.69;42.15;96418.28;5448618;26;19995;-48
2024/04/11 11:04:43;;;;;;;5.10;3.53;;;;;;;18.46;42.26;96403.28;5441508;26;19995;-48
2024/04/11 11:07:10;;;;;;;5.35;3.40;;;;;;;18.58;40.13;96405.34;5416289;26;20003;-47
2024/04/11 11:09:42;;;;;;;6.30;3.22;;;;;;;19.02;41.36;96396.94;5448476;26;19999;-48
2024/04/11 11:12:11;;;;;;;4.63;3.30;;;;;;;19.44;40.27;96394.91;5432832;26;20106;-49
2024/04/11 11:14:38;;;;;;;5.32;3.22;;;;;;;19.32;40.34;96386.81;5448733;26;20002;-49
2024/04/11 11:17:07;;;;;;;5.45;3.40;;;;;;;19.82;40.66;96404.00;5451559;26;20081;-48
2024/04/11 11:19:37;;;;;;;7.05;3.72;;;;;;;19.95;39.19;96403.16;5448096;26;19999;-50
2024/04/11 11:22:03;;;;;;;;;;;;;;;19.79;38.25;96396.50;5448821;26;20444;-46
2024/04/11 11:24:30;;;;;;;5.55;3.85;;;;;;;20.01;41.26;96394.41;5446701;26;19924;-47
2024/04/11 11:26:57;;;;;;;4.38;3.30;;;;;;;20.28;38.70;96389.88;5434572;26;19999;-50
2024/04/11 11:29:27;;;;;;;5.25;3.25;;;;;;;20.44;37.50;96384.06;5445422;26;20038;-50
2024/04/11 11:32:04;;;;;;;4.97;3.53;;;;;;;20.32;40.46;96380.50;5440982;26;19995;-47
2024/04/11 11:34:35;;;;;;;4.20;3.50;;;;;;;20.67;38.04;96386.22;5439705;26;20405;-49
2024/04/11 11:37:01;;;;;;;4.18;3.40;;;;;;;20.92;38.96;96384.66;5442789;26;19999;-49
2024/04/11 11:39:36;;;;;;;5.78;3.70;;;;;;;21.06;40.88;96384.34;5450269;26;20011;-47
2024/04/11 11:47:36;;;;;;;6.05;3.85;;;;;;;21.19;36.92;96383.44;5451662;26;20026;-51